This is the latest recevied weather packets stored in our database for station/object IU0KRR-10. If no packets are shown the sender has not sent any weather packets the latest 10 day(s).
| Time | Temp. | Humidity | Pressure | Rain* | Wind** | Luminosity | Snow |
|---|---|---|---|---|---|---|---|
| 1787748559 | 26.67° C | 45% | 878 hPa | - | - | - | - |
| 1787747734 | 26.11° C | 47% | 878.1 hPa | - | - | - | - |
| 1787746724 | 26.11° C | 47% | 878.2 hPa | - | - | - | - |
| 1787745892 | 25.56° C | 49% | 878.1 hPa | - | - | - | - |
| 1787744791 | 25.56° C | 49% | 878.1 hPa | - | - | - | - |
| 1787743726 | 25° C | 49% | 878.1 hPa | - | - | - | - |
| 1787742840 | 25° C | 48% | 878.1 hPa | - | - | - | - |
| 1787742808 | 25° C | 48% | 878.1 hPa | - | - | - | - |
| 1787741940 | 25° C | 49% | 878 hPa | - | - | - | - |
| 1787741905 | 25° C | 49% | 878 hPa | - | - | - | - |
| 1787741089 | 25° C | 53% | 878 hPa | - | - | - | - |
| 1787741004 | 25° C | 53% | 878 hPa | - | - | - | - |
| 1787740102 | 25° C | 51% | 878.1 hPa | - | - | - | - |
| 1787739202 | 25° C | 53% | 878 hPa | - | - | - | - |
| 1787738353 | 24.44° C | 52% | 878 hPa | - | - | - | - |
| 1787738302 | 24.44° C | 52% | 878 hPa | - | - | - | - |
| 1787737439 | 23.33° C | 57% | 878.1 hPa | - | - | - | - |
| 1787737401 | 23.33° C | 57% | 878.1 hPa | - | - | - | - |
| 1787736547 | 23.89° C | 56% | 878.2 hPa | - | - | - | - |
| 1787736500 | 23.89° C | 56% | 878.2 hPa | - | - | - | - |
| 1787735599 | 23.33° C | 57% | 878.2 hPa | - | - | - | - |
| 1787734698 | 23.33° C | 58% | 878.1 hPa | - | - | - | - |
| 1787733797 | 22.78° C | 59% | 878 hPa | - | - | - | - |
| 1787732943 | 22.78° C | 57% | 877.8 hPa | - | - | - | - |
| 1787732896 | 22.78° C | 57% | 877.8 hPa | - | - | - | - |
* Rain since midnight (hover to see other rain measurements)
** Current wind speed in m/s (hover to see current wind gust speed)